Time;durP1;ratioP1;P1;durP2;ratioP2;P2;SDS_P1;SDS_P2;PMS_P1;PMS_P2;Temp;Humidity;BMP_temperature;BMP_pressure;BME280_temperature;BME280_humidity;BME280_pressure;Samples;Min_cycle;Max_cycle;Signal;HPM_P1;HPM_P2
2020/12/19 00:01:06;;;;;;;14.43;8.60;;;6.90;88.90;;;;;;4974824;28;20046;-55
2020/12/19 00:03:32;;;;;;;14.82;9.30;;;6.80;88.80;;;;;;4975688;28;20050;-55
2020/12/19 00:05:57;;;;;;;11.05;8.73;;;6.90;89.20;;;;;;4975713;28;20047;-55
2020/12/19 00:08:43;;;;;;;11.32;8.65;;;6.90;89.10;;;;;;4974877;28;20134;-55
2020/12/19 00:11:09;;;;;;;13.77;9.00;;;6.90;88.80;;;;;;4975545;28;20074;-55
2020/12/19 00:13:34;;;;;;;14.20;8.57;;;6.90;89.10;;;;;;4975144;28;20053;-55
2020/12/19 00:16:20;;;;;;;14.68;9.32;;;6.90;88.70;;;;;;4974889;28;20097;-55
2020/12/19 00:19:05;;;;;;;14.90;8.98;;;6.90;89.10;;;;;;4974586;28;20050;-56
2020/12/19 00:21:33;;;;;;;14.52;9.75;;;6.90;88.90;;;;;;4975436;28;20066;-55
2020/12/19 00:24:18;;;;;;;12.95;9.20;;;6.80;89.10;;;;;;4974596;28;20054;-55
2020/12/19 00:26:44;;;;;;;16.25;10.27;;;6.80;88.90;;;;;;4975221;28;20047;-56
2020/12/19 00:29:12;;;;;;;15.02;9.90;;;6.80;88.90;;;;;;4975532;28;20043;-55
2020/12/19 00:32:00;;;;;;;14.32;10.35;;;6.80;89.10;;;;;;4974651;28;20085;-56
2020/12/19 00:34:26;;;;;;;15.38;9.80;;;6.80;89.30;;;;;;4975176;28;20385;-55
2020/12/19 00:36:51;;;;;;;13.25;10.32;;;6.80;89.20;;;;;;4989906;28;20050;-55
2020/12/19 00:39:17;;;;;;;17.70;10.10;;;6.80;89.20;;;;;;4974898;28;20047;-55
2020/12/19 00:41:45;;;;;;;15.32;9.98;;;6.80;89.30;;;;;;4975164;28;20059;-56
2020/12/19 00:44:30;;;;;;;13.88;9.68;;;6.80;89.40;;;;;;4974218;28;20043;-55
2020/12/19 00:46:56;;;;;;;18.00;9.85;;;6.80;89.00;;;;;;4974893;28;20076;-56
2020/12/19 00:49:42;;;;;;;15.75;10.45;;;6.80;89.00;;;;;;4974013;28;20097;-56
2020/12/19 00:52:08;;;;;;;14.30;9.85;;;6.70;89.20;;;;;;4974782;28;20074;-56
2020/12/19 00:54:33;;;;;;;13.25;9.57;;;6.70;89.10;;;;;;4974865;28;20058;-55
2020/12/19 00:57:19;;;;;;;16.33;10.20;;;6.70;89.20;;;;;;4974071;28;20054;-55
2020/12/19 00:59:45;;;;;;;15.25;10.55;;;6.70;89.40;;;;;;4974910;28;20121;-55
2020/12/19 01:02:11;;;;;;;19.00;10.20;;;6.70;89.40;;;;;;4975121;28;20059;-55
2020/12/19 01:04:36;;;;;;;15.10;10.65;;;6.70;89.20;;;;;;4974516;28;20049;-55
2020/12/19 01:07:02;;;;;;;15.55;10.68;;;6.70;89.50;;;;;;4974724;28;20067;-55
2020/12/19 01:09:28;;;;;;;15.30;10.55;;;6.70;89.80;;;;;;4974558;28;20054;-55
2020/12/19 01:11:53;;;;;;;15.35;11.38;;;6.70;89.30;;;;;;4974983;28;20425;-56
2020/12/19 01:14:39;;;;;;;17.17;10.85;;;6.70;89.80;;;;;;4973560;28;20078;-55
2020/12/19 01:17:05;;;;;;;15.10;11.27;;;6.70;89.40;;;;;;4974392;28;20073;-56
2020/12/19 01:19:31;;;;;;;14.93;10.18;;;6.70;89.60;;;;;;4974332;28;20046;-55
2020/12/19 01:21:57;;;;;;;16.45;11.25;;;6.70;89.60;;;;;;4974395;28;20050;-56
2020/12/19 01:24:23;;;;;;;16.00;10.23;;;6.70;90.00;;;;;;4973575;28;20101;-56
2020/12/19 01:26:48;;;;;;;17.88;10.95;;;6.70;89.70;;;;;;4974163;28;20515;-55
2020/12/19 01:29:15;;;;;;;18.33;11.23;;;6.70;89.60;;;;;;4974012;28;20054;-56
2020/12/19 01:32:00;;;;;;;16.88;10.90;;;6.70;90.00;;;;;;4973507;28;20067;-56
2020/12/19 01:34:46;;;;;;;16.70;11.23;;;6.70;90.10;;;;;;4973071;28;20526;-56
2020/12/19 01:37:32;;;;;;;18.80;11.73;;;6.80;89.90;;;;;;4973346;28;20157;-55
2020/12/19 01:40:17;;;;;;;21.23;12.02;;;6.80;89.90;;;;;;4973044;28;20047;-55
2020/12/19 01:42:43;;;;;;;18.20;11.38;;;6.80;89.70;;;;;;4973969;28;20151;-56
2020/12/19 01:45:09;;;;;;;16.55;10.57;;;6.80;89.70;;;;;;4973876;28;20050;-56
2020/12/19 01:47:35;;;;;;;17.75;12.75;;;6.80;89.60;;;;;;4973951;28;20043;-55
2020/12/19 01:50:05;;;;;;;23.15;11.68;;;6.80;89.70;;;;;;4973814;28;20456;-55
2020/12/19 01:52:31;;;;;;;18.35;11.15;;;6.80;90.00;;;;;;4973904;28;20447;-56
2020/12/19 01:55:01;;;;;;;16.00;12.23;;;6.80;89.90;;;;;;4973819;28;20134;-55
2020/12/19 01:57:30;;;;;;;17.90;12.02;;;6.80;89.50;;;;;;4973727;28;20042;-55
2020/12/19 01:59:56;;;;;;;19.98;12.90;;;6.80;90.10;;;;;;4973752;28;20436;-55
2020/12/19 02:02:24;;;;;;;17.00;11.43;;;6.80;90.00;;;;;;4973599;28;20097;-55
2020/12/19 02:04:50;;;;;;;16.27;11.90;;;6.80;90.10;;;;;;4973668;28;20388;-55
2020/12/19 02:07:17;;;;;;;19.98;12.75;;;6.90;90.00;;;;;;4973606;28;20043;-55
2020/12/19 02:09:43;;;;;;;16.75;11.73;;;6.80;90.00;;;;;;4973516;28;20050;-55
2020/12/19 02:12:10;;;;;;;18.77;12.15;;;6.80;89.90;;;;;;4973511;28;20053;-55
2020/12/19 02:14:37;;;;;;;15.27;12.57;;;6.80;90.20;;;;;;4973398;28;20046;-56
2020/12/19 02:17:23;;;;;;;18.30;13.35;;;6.80;90.20;;;;;;4972567;28;20051;-55
2020/12/19 02:20:08;;;;;;;19.27;13.23;;;6.80;89.90;;;;;;4972259;28;20043;-55
2020/12/19 02:22:54;;;;;;;19.38;12.38;;;6.80;90.10;;;;;;4972547;28;20058;-55
2020/12/19 02:25:22;;;;;;;17.70;12.60;;;6.70;89.80;;;;;;4973306;28;20113;-55
2020/12/19 02:27:49;;;;;;;15.75;11.15;;;6.70;90.20;;;;;;4973340;28;20154;-55
2020/12/19 02:30:38;;;;;;;19.05;13.18;;;6.80;90.00;;;;;;4986225;28;20050;-55
2020/12/19 02:33:04;;;;;;;22.15;12.68;;;6.80;89.90;;;;;;4973257;28;20047;-56
2020/12/19 02:35:50;;;;;;;18.80;12.73;;;6.90;89.90;;;;;;4972159;28;20047;-55
2020/12/19 02:38:15;;;;;;;17.67;12.20;;;6.80;89.70;;;;;;4973183;28;20046;-56
2020/12/19 02:41:01;;;;;;;21.27;12.38;;;6.80;89.80;;;;;;4972114;28;20082;-55
2020/12/19 02:43:27;;;;;;;19.83;12.48;;;6.70;89.90;;;;;;4973013;28;20440;-56
2020/12/19 02:45:52;;;;;;;20.95;12.43;;;6.80;90.00;;;;;;4971418;28;20039;-55
2020/12/19 02:48:18;;;;;;;19.17;12.55;;;6.70;90.10;;;;;;4973136;28;20444;-56
2020/12/19 02:50:44;;;;;;;21.38;12.32;;;6.80;90.10;;;;;;4972798;28;20050;-55
2020/12/19 02:53:09;;;;;;;19.48;12.65;;;6.80;90.00;;;;;;4973229;28;20137;-55
2020/12/19 02:55:35;;;;;;;20.42;12.80;;;6.70;90.10;;;;;;4973340;28;20097;-56
2020/12/19 02:58:01;;;;;;;20.05;13.40;;;6.80;90.10;;;;;;4973050;28;20043;-56
2020/12/19 03:00:26;;;;;;;20.50;13.20;;;6.70;90.10;;;;;;4972917;28;20465;-55
2020/12/19 03:02:53;;;;;;;17.42;12.50;;;6.70;90.20;;;;;;4972951;28;20038;-56
2020/12/19 03:05:18;;;;;;;19.17;12.45;;;6.70;90.10;;;;;;4973049;28;20047;-55
2020/12/19 03:07:44;;;;;;;18.30;12.35;;;6.70;90.20;;;;;;4973141;28;20430;-55
2020/12/19 03:10:10;;;;;;;21.75;12.10;;;6.70;90.20;;;;;;4972911;28;20134;-55
2020/12/19 03:12:55;;;;;;;19.80;11.55;;;6.60;90.30;;;;;;4972224;28;20055;-55
2020/12/19 03:15:21;;;;;;;17.60;12.15;;;6.70;90.20;;;;;;4972657;28;20137;-55
2020/12/19 03:17:47;;;;;;;19.52;11.82;;;6.60;90.20;;;;;;4972730;28;20047;-55
2020/12/19 03:20:14;;;;;;;20.10;13.13;;;6.60;90.20;;;;;;4972929;28;20130;-55
2020/12/19 03:23:01;;;;;;;19.92;12.77;;;6.50;90.10;;;;;;4971788;28;20488;-55
2020/12/19 03:25:27;;;;;;;21.38;13.00;;;6.60;90.40;;;;;;4972795;28;20067;-55
2020/12/19 03:27:54;;;;;;;18.63;12.00;;;6.50;90.30;;;;;;4972626;28;20081;-55
2020/12/19 03:30:20;;;;;;;18.35;11.98;;;6.50;90.40;;;;;;4972881;28;20043;-55
2020/12/19 03:32:45;;;;;;;17.33;11.93;;;6.50;90.40;;;;;;4972605;28;20125;-55
2020/12/19 03:35:11;;;;;;;18.40;13.35;;;6.50;90.50;;;;;;4972785;28;20137;-55
2020/12/19 03:37:37;;;;;;;24.40;12.23;;;6.60;90.40;;;;;;4972785;28;20073;-56
2020/12/19 03:40:23;;;;;;;20.65;12.90;;;6.50;90.50;;;;;;4971628;28;20069;-55
2020/12/19 03:43:08;;;;;;;17.77;12.05;;;6.50;90.40;;;;;;4958372;28;20055;-55
2020/12/19 03:45:54;;;;;;;16.92;12.25;;;6.40;90.40;;;;;;4971817;28;20050;-56
2020/12/19 03:48:21;;;;;;;22.33;13.13;;;6.40;90.70;;;;;;4975189;28;20049;-56
2020/12/19 03:50:46;;;;;;;19.67;13.18;;;6.50;90.70;;;;;;4975839;28;20062;-55
2020/12/19 03:53:12;;;;;;;21.23;13.10;;;6.40;90.70;;;;;;4974349;28;20047;-55
2020/12/19 03:55:38;;;;;;;20.88;13.00;;;6.40;90.80;;;;;;4976078;28;20377;-55
2020/12/19 03:58:03;;;;;;;21.70;13.10;;;6.50;90.90;;;;;;4975925;28;20047;-55
2020/12/19 04:00:30;;;;;;;22.55;13.48;;;6.40;90.90;;;;;;4975920;28;20130;-56
2020/12/19 04:02:56;;;;;;;24.52;13.40;;;6.40;91.00;;;;;;4975756;28;20054;-55
2020/12/19 04:05:22;;;;;;;21.27;14.43;;;6.50;90.90;;;;;;4976138;28;20134;-55
2020/12/19 04:08:08;;;;;;;21.23;14.55;;;6.40;91.00;;;;;;4975047;28;20051;-56
2020/12/19 04:10:34;;;;;;;23.05;13.95;;;6.50;90.90;;;;;;4975680;28;20043;-55
2020/12/19 04:12:59;;;;;;;22.33;14.10;;;6.40;90.90;;;;;;4976025;28;20046;-55
2020/12/19 04:15:25;;;;;;;22.17;13.60;;;6.40;90.90;;;;;;4975671;28;20382;-56
2020/12/19 04:17:52;;;;;;;20.98;13.50;;;6.40;91.00;;;;;;4975790;28;20182;-55
2020/12/19 04:20:18;;;;;;;21.60;14.02;;;6.50;91.10;;;;;;4975568;28;20556;-56
2020/12/19 04:22:43;;;;;;;21.42;14.07;;;6.40;91.10;;;;;;4975611;28;20479;-55
2020/12/19 04:25:09;;;;;;;24.63;14.88;;;6.40;91.20;;;;;;4975547;28;20138;-56
2020/12/19 04:27:36;;;;;;;20.42;14.18;;;6.40;91.10;;;;;;4975409;28;20481;-55
2020/12/19 04:30:07;;;;;;;21.25;14.27;;;6.40;91.30;;;;;;4975357;28;20077;-55
2020/12/19 04:32:33;;;;;;;22.25;15.15;;;6.50;91.20;;;;;;4975473;28;20542;-55
2020/12/19 04:34:59;;;;;;;22.80;14.38;;;6.50;91.00;;;;;;4975382;28;20055;-55
2020/12/19 04:37:45;;;;;;;22.55;14.38;;;6.50;91.00;;;;;;4974507;28;20039;-55
2020/12/19 04:40:10;;;;;;;20.02;13.80;;;6.50;91.20;;;;;;4975191;28;20373;-55
2020/12/19 04:42:36;;;;;;;22.60;14.48;;;6.50;91.20;;;;;;4975178;28;20082;-55
2020/12/19 04:45:22;;;;;;;23.60;15.45;;;6.50;91.20;;;;;;4974339;28;20074;-56
2020/12/19 04:47:48;;;;;;;23.13;15.00;;;6.50;91.00;;;;;;4974891;28;20078;-55
2020/12/19 04:50:16;;;;;;;20.98;13.90;;;6.50;91.10;;;;;;4974704;28;20047;-56
2020/12/19 04:52:41;;;;;;;22.10;14.98;;;6.50;91.20;;;;;;4974869;28;20047;-56
2020/12/19 04:55:07;;;;;;;23.50;14.85;;;6.50;91.20;;;;;;4974737;28;20097;-56
2020/12/19 04:57:33;;;;;;;24.17;15.50;;;6.50;91.30;;;;;;4974748;28;20046;-55
2020/12/19 04:59:59;;;;;;;23.15;15.25;;;6.60;91.30;;;;;;4974827;28;20050;-55
2020/12/19 05:02:25;;;;;;;25.83;14.95;;;6.50;91.20;;;;;;4974689;28;20374;-55
2020/12/19 05:04:51;;;;;;;23.25;16.45;;;6.50;91.20;;;;;;4974636;28;20066;-56
2020/12/19 05:07:17;;;;;;;20.08;13.98;;;6.60;91.30;;;;;;4974736;28;20050;-55
2020/12/19 05:09:44;;;;;;;20.08;13.98;;;6.60;91.20;;;;;;4974617;28;20053;-56
2020/12/19 05:12:12;;;;;;;22.55;14.57;;;6.60;91.10;;;;;;4974407;28;20047;-56
2020/12/19 05:14:38;;;;;;;22.05;13.60;;;6.60;91.20;;;;;;4974502;28;20050;-56
2020/12/19 05:17:04;;;;;;;20.30;13.68;;;6.60;91.20;;;;;;4974520;28;20051;-55
2020/12/19 05:19:31;;;;;;;23.27;13.45;;;6.70;91.10;;;;;;4974226;28;20559;-56
2020/12/19 05:21:57;;;;;;;25.75;14.00;;;6.70;91.10;;;;;;4974450;28;20071;-56
2020/12/19 05:24:32;;;;;;;20.45;13.40;;;6.70;90.90;;;;;;4974283;28;20094;-55
2020/12/19 05:26:58;;;;;;;20.50;12.35;;;6.80;90.80;;;;;;4973091;28;20074;-55
2020/12/19 05:29:25;;;;;;;18.05;12.90;;;6.70;90.90;;;;;;4974384;28;20071;-56
2020/12/19 05:31:56;;;;;;;23.90;14.02;;;6.80;90.90;;;;;;4974362;28;20400;-55
2020/12/19 05:34:22;;;;;;;21.58;14.18;;;6.80;90.80;;;;;;4974187;28;20066;-55
2020/12/19 05:37:10;;;;;;;20.08;12.40;;;6.80;90.80;;;;;;4973209;28;20138;-55
2020/12/19 05:39:55;;;;;;;18.17;12.98;;;6.80;90.90;;;;;;4973240;28;20109;-56
2020/12/19 05:42:22;;;;;;;22.30;12.80;;;6.80;90.80;;;;;;4974145;28;20043;-56
2020/12/19 05:45:15;;;;;;;18.35;13.35;;;6.80;90.80;;;;;;4973103;28;20039;-55
2020/12/19 05:48:01;;;;;;;18.15;12.52;;;6.80;90.90;;;;;;4973173;28;20078;-56
2020/12/19 05:50:47;;;;;;;19.00;12.93;;;6.80;90.80;;;;;;4972605;28;20173;-56
2020/12/19 05:53:14;;;;;;;19.92;13.10;;;6.80;90.80;;;;;;4973855;28;20129;-56
2020/12/19 05:56:00;;;;;;;19.23;12.55;;;6.70;90.70;;;;;;4986406;28;20047;-55
2020/12/19 05:58:26;;;;;;;19.52;13.05;;;6.70;90.80;;;;;;4973824;28;20050;-56
2020/12/19 06:01:14;;;;;;;21.85;13.48;;;6.70;90.90;;;;;;4972688;28;20053;-55
2020/12/19 06:03:47;;;;;;;19.55;13.38;;;6.70;90.70;;;;;;4973576;28;20202;-55
2020/12/19 06:06:15;;;;;;;22.38;13.48;;;6.70;90.70;;;;;;4973605;28;20051;-55
2020/12/19 06:08:41;;;;;;;20.38;13.52;;;6.70;90.90;;;;;;4973525;28;20046;-56
2020/12/19 06:11:15;;;;;;;20.88;12.30;;;6.70;90.90;;;;;;4973196;28;20050;-56
2020/12/19 06:13:48;;;;;;;25.52;13.40;;;6.70;90.90;;;;;;4973652;28;20061;-55
2020/12/19 06:16:17;;;;;;;21.65;14.32;;;6.70;90.90;;;;;;4972118;28;20051;-55
2020/12/19 06:18:48;;;;;;;20.67;13.80;;;6.70;90.90;;;;;;4973311;28;20063;-56
2020/12/19 06:21:15;;;;;;;20.35;12.80;;;6.70;90.90;;;;;;4973447;28;20072;-55
2020/12/19 06:23:42;;;;;;;21.58;13.30;;;6.70;90.80;;;;;;4973650;28;20130;-56
2020/12/19 06:26:09;;;;;;;22.15;13.13;;;6.70;90.80;;;;;;4973386;28;20043;-55
2020/12/19 06:28:54;;;;;;;20.92;13.00;;;6.70;90.80;;;;;;4972548;28;20047;-55
2020/12/19 06:31:23;;;;;;;20.83;13.55;;;6.70;90.90;;;;;;4973149;28;20178;-55
2020/12/19 06:33:50;;;;;;;20.50;13.45;;;6.60;90.90;;;;;;4973366;28;20042;-55
2020/12/19 06:36:47;;;;;;;19.90;12.85;;;6.60;90.90;;;;;;4972148;28;20493;-55
2020/12/19 06:39:13;;;;;;;21.60;13.48;;;6.60;90.80;;;;;;4973129;28;20081;-55
2020/12/19 06:41:48;;;;;;;23.15;13.38;;;6.60;90.90;;;;;;4972983;28;20489;-56
2020/12/19 06:44:33;;;;;;;20.75;12.98;;;6.60;90.90;;;;;;4972538;28;20047;-56
2020/12/19 06:47:01;;;;;;;22.33;13.65;;;6.60;90.90;;;;;;4973139;28;20054;-55
2020/12/19 06:49:29;;;;;;;21.60;13.65;;;6.50;91.30;;;;;;4972898;28;20098;-54
2020/12/19 06:51:59;;;;;;;21.35;13.38;;;6.50;91.10;;;;;;4972967;28;20492;-55
2020/12/19 06:54:34;;;;;;;21.13;13.68;;;6.50;91.20;;;;;;4973160;28;20042;-55
2020/12/19 06:57:28;;;;;;;21.83;13.05;;;6.60;91.10;;;;;;4958866;28;20047;-56
2020/12/19 06:59:57;;;;;;;24.00;13.88;;;6.50;91.30;;;;;;4973211;28;20588;-55
2020/12/19 07:02:24;;;;;;;22.40;13.50;;;6.60;91.20;;;;;;4972946;28;20085;-56
2020/12/19 07:04:51;;;;;;;26.95;14.20;;;6.60;91.10;;;;;;4972850;28;20493;-56
2020/12/19 07:07:25;;;;;;;22.95;13.38;;;6.60;91.30;;;;;;4972822;28;20493;-56
2020/12/19 07:09:56;;;;;;;20.67;13.25;;;6.60;91.10;;;;;;4972838;28;20043;-56
2020/12/19 07:12:36;;;;;;;19.70;13.57;;;6.70;91.20;;;;;;4972895;28;20050;-55
2020/12/19 07:15:48;;;;;;;20.42;13.77;;;6.70;91.10;;;;;;4971902;28;20489;-55
2020/12/19 07:18:37;;;;;;;20.23;13.27;;;6.70;91.10;;;;;;4971723;28;20104;-56
2020/12/19 07:21:09;;;;;;;17.90;13.02;;;6.70;91.10;;;;;;4972680;28;20492;-55
2020/12/19 07:23:39;;;;;;;26.10;14.25;;;6.70;90.90;;;;;;4976073;28;20045;-55
2020/12/19 07:26:06;;;;;;;19.10;13.48;;;6.70;90.90;;;;;;4976393;28;20529;-56
2020/12/19 07:28:33;;;;;;;20.40;13.70;;;6.70;91.00;;;;;;4976708;28;20130;-55
2020/12/19 07:30:59;;;;;;;21.02;13.65;;;6.70;91.00;;;;;;4976457;28;20053;-55
2020/12/19 07:33:45;;;;;;;20.90;14.27;;;6.70;91.10;;;;;;4975597;28;20128;-56
2020/12/19 07:36:12;;;;;;;20.25;13.52;;;6.60;90.90;;;;;;4975148;28;20054;-55
2020/12/19 07:38:38;;;;;;;19.88;12.82;;;6.70;91.00;;;;;;4976420;28;20074;-56
2020/12/19 07:41:03;;;;;;;25.02;13.25;;;6.70;90.90;;;;;;4976192;28;20125;-55
2020/12/19 07:43:29;;;;;;;19.23;13.13;;;6.70;90.90;;;;;;4976161;28;20043;-56
2020/12/19 07:45:58;;;;;;;23.58;13.90;;;6.60;91.00;;;;;;4976180;28;20043;-55
2020/12/19 07:48:53;;;;;;;22.75;13.65;;;6.70;90.90;;;;;;4975335;28;20047;-56
2020/12/19 07:51:22;;;;;;;20.90;13.68;;;6.80;91.00;;;;;;4975794;28;20059;-56
2020/12/19 07:53:48;;;;;;;;;;;6.80;90.80;;;;;;4976584;28;20563;-56
2020/12/19 07:56:16;;;;;;;18.23;12.68;;;6.80;90.70;;;;;;4976372;28;20020;-55
2020/12/19 07:58:46;;;;;;;21.17;12.98;;;6.80;90.60;;;;;;4975929;28;20046;-56
2020/12/19 08:01:38;;;;;;;20.45;12.38;;;6.90;90.50;;;;;;4974919;28;20043;-56
2020/12/19 08:04:24;;;;;;;24.08;12.88;;;6.80;90.50;;;;;;4975101;28;20057;-55
2020/12/19 08:06:50;;;;;;;23.77;12.48;;;6.70;90.70;;;;;;4975817;28;20039;-55
2020/12/19 08:09:26;;;;;;;18.83;13.07;;;6.90;90.50;;;;;;4975754;28;20050;-56
2020/12/19 08:11:53;;;;;;;21.33;12.52;;;6.80;90.40;;;;;;4975756;28;20054;-56
2020/12/19 08:14:40;;;;;;;19.60;12.55;;;6.80;90.60;;;;;;4974979;28;20141;-56
2020/12/19 08:17:13;;;;;;;18.67;11.70;;;6.80;90.50;;;;;;4975665;28;20122;-56
2020/12/19 08:20:00;;;;;;;16.45;11.73;;;6.80;90.70;;;;;;4974717;28;20050;-56
2020/12/19 08:22:47;;;;;;;16.98;11.50;;;6.90;90.40;;;;;;4974633;28;20106;-56
2020/12/19 08:25:34;;;;;;;17.83;12.10;;;6.80;90.40;;;;;;4974609;28;20047;-55
2020/12/19 08:28:00;;;;;;;18.88;12.63;;;6.80;90.40;;;;;;4975378;28;20039;-55
2020/12/19 08:30:28;;;;;;;21.60;12.65;;;6.80;90.40;;;;;;4973660;28;20516;-56
2020/12/19 08:32:59;;;;;;;19.77;11.45;;;6.80;90.40;;;;;;4975156;28;20129;-56
2020/12/19 08:35:27;;;;;;;20.13;11.73;;;6.80;90.50;;;;;;4975693;28;20050;-55
2020/12/19 08:38:13;;;;;;;17.30;11.55;;;6.90;90.40;;;;;;4975271;28;20489;-56
2020/12/19 08:40:44;;;;;;;18.98;11.80;;;6.90;90.20;;;;;;4975288;28;20042;-55
2020/12/19 08:43:12;;;;;;;20.50;11.82;;;6.90;90.30;;;;;;4975276;28;20062;-55
2020/12/19 08:45:40;;;;;;;18.00;12.50;;;7.00;90.10;;;;;;4974932;28;20472;-56
2020/12/19 08:48:08;;;;;;;17.50;11.45;;;7.00;90.00;;;;;;4975215;28;20298;-56
2020/12/19 08:50:40;;;;;;;17.15;11.32;;;7.10;90.00;;;;;;4974843;28;20157;-55
2020/12/19 08:53:22;;;;;;;16.60;11.18;;;7.20;89.50;;;;;;4975052;28;20055;-56
2020/12/19 08:56:17;;;;;;;16.13;10.68;;;7.30;89.20;;;;;;4974176;28;20047;-56
2020/12/19 08:58:52;;;;;;;16.00;10.40;;;7.30;89.10;;;;;;4974942;28;20050;-57
2020/12/19 09:01:17;;;;;;;17.38;11.10;;;7.40;88.60;;;;;;4974596;28;20497;-56
2020/12/19 09:04:08;;;;;;;17.25;10.90;;;7.50;88.40;;;;;;4973820;28;20047;-55
2020/12/19 09:06:54;;;;;;;14.52;9.75;;;7.50;88.20;;;;;;4973869;28;20046;-56
2020/12/19 09:09:28;;;;;;;15.70;10.77;;;7.50;88.30;;;;;;4974703;28;20404;-56
2020/12/19 09:12:14;;;;;;;15.30;10.50;;;7.60;88.30;;;;;;4973872;28;20045;-56
2020/12/19 09:15:14;;;;;;;16.25;10.35;;;7.60;88.10;;;;;;4987587;28;20579;-55
2020/12/19 09:17:40;;;;;;;17.92;10.25;;;7.70;88.00;;;;;;4974420;28;20054;-56
2020/12/19 09:20:06;;;;;;;15.15;10.02;;;7.80;87.80;;;;;;4974364;28;20051;-56
2020/12/19 09:22:52;;;;;;;17.23;9.63;;;7.80;87.50;;;;;;4973628;28;20082;-55
2020/12/19 09:25:18;;;;;;;13.45;9.60;;;7.90;87.40;;;;;;4974458;28;20042;-56
2020/12/19 09:27:44;;;;;;;16.65;10.32;;;7.90;87.50;;;;;;4974221;28;20051;-56
2020/12/19 09:30:09;;;;;;;17.63;10.77;;;8.00;87.20;;;;;;4974244;28;20406;-56
2020/12/19 09:32:35;;;;;;;13.43;9.82;;;8.10;86.70;;;;;;4974084;28;20042;-56
2020/12/19 09:35:01;;;;;;;13.63;9.60;;;8.10;86.70;;;;;;4974455;28;20042;-56
2020/12/19 09:37:26;;;;;;;14.30;9.60;;;8.20;86.40;;;;;;4974293;28;20133;-56
2020/12/19 09:39:52;;;;;;;14.55;9.52;;;8.40;86.10;;;;;;4974239;28;20495;-56
2020/12/19 09:42:17;;;;;;;15.45;9.75;;;8.40;86.30;;;;;;4974490;28;20520;-56
2020/12/19 09:45:03;;;;;;;13.98;9.52;;;8.40;86.10;;;;;;4972368;28;20046;-56
2020/12/19 09:47:51;;;;;;;13.88;9.50;;;8.50;85.70;;;;;;4973167;28;20042;-56
2020/12/19 09:50:17;;;;;;;13.52;9.25;;;8.60;85.60;;;;;;4973853;28;20058;-55
2020/12/19 09:53:03;;;;;;;13.80;9.68;;;8.80;84.70;;;;;;4973062;28;20082;-56
2020/12/19 09:55:29;;;;;;;14.00;9.40;;;9.00;84.50;;;;;;4973722;28;20077;-56
2020/12/19 09:57:55;;;;;;;13.15;8.50;;;9.10;84.50;;;;;;5001218;28;20048;-56
2020/12/19 10:00:22;;;;;;;16.15;9.43;;;9.20;84.00;;;;;;4978499;28;20117;-56
2020/12/19 10:02:49;;;;;;;15.75;9.70;;;9.20;83.80;;;;;;4994447;28;20488;-56
2020/12/19 10:05:14;;;;;;;12.07;8.45;;;9.30;84.10;;;;;;4993152;28;20077;-56
2020/12/19 10:07:40;;;;;;;18.23;8.52;;;9.40;83.70;;;;;;4999482;28;20049;-56
2020/12/19 10:10:07;;;;;;;14.75;9.05;;;9.40;83.40;;;;;;5012718;28;20546;-56
2020/12/19 10:12:34;;;;;;;14.25;8.88;;;9.60;82.80;;;;;;4988400;28;20097;-56
2020/12/19 10:15:20;;;;;;;13.98;9.45;;;9.60;83.20;;;;;;5000394;28;20050;-56
2020/12/19 10:17:45;;;;;;;12.32;8.75;;;9.60;83.10;;;;;;4992858;28;20038;-56
2020/12/19 10:20:31;;;;;;;18.05;8.60;;;9.70;82.70;;;;;;4992048;28;20047;-56
2020/12/19 10:22:57;;;;;;;13.60;9.18;;;9.70;83.30;;;;;;4993007;28;20046;-56
2020/12/19 10:25:22;;;;;;;14.88;9.02;;;9.60;82.70;;;;;;4993222;28;20050;-56
2020/12/19 10:27:48;;;;;;;12.93;8.73;;;9.70;82.60;;;;;;5006882;28;20048;-56
2020/12/19 10:30:14;;;;;;;15.80;10.40;;;9.70;82.90;;;;;;5012653;28;20057;-56
2020/12/19 10:32:39;;;;;;;15.10;9.75;;;9.70;83.00;;;;;;5012438;28;20476;-56
2020/12/19 10:35:06;;;;;;;13.82;9.88;;;9.70;82.90;;;;;;5012431;28;20069;-56
2020/12/19 10:37:35;;;;;;;11.65;8.50;;;9.80;82.80;;;;;;5011585;28;20476;-56
2020/12/19 10:40:05;;;;;;;12.73;9.20;;;9.80;83.00;;;;;;5012470;28;20096;-56
2020/12/19 10:42:31;;;;;;;13.98;8.93;;;9.80;82.70;;;;;;5012593;28;20157;-57
2020/12/19 10:44:57;;;;;;;12.05;8.73;;;10.00;82.60;;;;;;4996376;28;20100;-57
2020/12/19 10:47:22;;;;;;;12.85;9.38;;;10.10;82.40;;;;;;4992510;28;20473;-56
2020/12/19 10:49:48;;;;;;;12.35;9.52;;;10.10;82.00;;;;;;4992575;28;20558;-57
2020/12/19 10:52:34;;;;;;;18.42;9.77;;;10.20;82.30;;;;;;4993363;28;20439;-56
2020/12/19 10:54:59;;;;;;;14.88;9.70;;;10.30;81.70;;;;;;4994522;28;20354;-56
2020/12/19 10:57:25;;;;;;;13.73;9.02;;;10.40;81.80;;;;;;5011292;28;20391;-56
2020/12/19 10:59:51;;;;;;;13.65;8.85;;;10.50;81.80;;;;;;5014497;28;20079;-56
2020/12/19 11:02:16;;;;;;;12.90;9.10;;;10.50;81.10;;;;;;5016427;28;20060;-57
2020/12/19 11:05:02;;;;;;;12.13;8.73;;;10.60;81.50;;;;;;5015651;28;20058;-58
2020/12/19 11:07:28;;;;;;;13.23;8.85;;;10.70;80.50;;;;;;5016591;28;20376;-58
2020/12/19 11:09:53;;;;;;;14.10;9.02;;;10.80;80.00;;;;;;5002387;28;20096;-58
2020/12/19 11:12:40;;;;;;;12.30;9.27;;;10.80;79.90;;;;;;5008154;28;20053;-59
2020/12/19 11:15:05;;;;;;;11.38;8.35;;;10.90;80.30;;;;;;5016719;28;20434;-59
2020/12/19 11:17:31;;;;;;;12.60;8.70;;;10.90;79.80;;;;;;5016289;28;20056;-59
2020/12/19 11:20:17;;;;;;;10.75;8.27;;;11.00;79.70;;;;;;5015533;28;20053;-58
2020/12/19 11:22:43;;;;;;;13.43;8.75;;;11.00;80.30;;;;;;5016359;28;20129;-59
2020/12/19 11:25:08;;;;;;;11.93;8.38;;;11.00;79.30;;;;;;5016079;28;20038;-59
2020/12/19 11:27:34;;;;;;;14.68;8.93;;;11.10;79.50;;;;;;5016214;28;20547;-59
2020/12/19 11:30:00;;;;;;;12.27;8.80;;;11.10;79.50;;;;;;5016104;28;20049;-59
2020/12/19 11:32:25;;;;;;;13.27;8.90;;;11.20;79.40;;;;;;5016268;28;20080;-59
2020/12/19 11:34:51;;;;;;;12.02;8.73;;;11.20;79.30;;;;;;5016187;28;20518;-59
2020/12/19 11:37:17;;;;;;;12.38;8.20;;;11.30;78.90;;;;;;5015750;28;20069;-59
2020/12/19 11:39:43;;;;;;;11.02;7.63;;;11.30;78.40;;;;;;5015833;28;20045;-59
2020/12/19 11:42:08;;;;;;;12.77;7.95;;;11.40;77.70;;;;;;5016107;28;20042;-59
2020/12/19 11:44:34;;;;;;;13.82;7.82;;;11.40;78.10;;;;;;5015846;28;20050;-59
2020/12/19 11:46:59;;;;;;;10.10;7.38;;;11.40;77.60;;;;;;5015695;28;20045;-59
2020/12/19 11:49:25;;;;;;;11.23;8.25;;;11.30;77.80;;;;;;4993473;28;20092;-59
2020/12/19 11:51:51;;;;;;;11.82;8.32;;;11.30;77.90;;;;;;5005150;28;20388;-59
2020/12/19 11:54:16;;;;;;;10.45;8.02;;;11.30;78.00;;;;;;5015548;28;20046;-59
2020/12/19 11:56:42;;;;;;;11.43;8.20;;;11.30;78.40;;;;;;5015908;28;20073;-59
2020/12/19 11:59:09;;;;;;;14.73;8.85;;;11.10;78.60;;;;;;5015603;28;20049;-59
2020/12/19 12:01:59;;;;;;;18.92;9.07;;;11.20;78.40;;;;;;5013462;28;20056;-59
2020/12/19 12:04:24;;;;;;;11.95;8.52;;;11.10;78.90;;;;;;5000943;28;20805;-59
2020/12/19 12:06:50;;;;;;;11.02;8.57;;;11.10;79.20;;;;;;5007169;28;20072;-59
2020/12/19 12:09:15;;;;;;;11.73;8.60;;;11.10;79.50;;;;;;5014652;28;20486;-59
2020/12/19 12:11:41;;;;;;;12.80;8.70;;;11.00;79.40;;;;;;5013441;28;20045;-59
2020/12/19 12:14:07;;;;;;;15.27;9.10;;;11.00;79.70;;;;;;4995301;28;20058;-59
2020/12/19 12:16:33;;;;;;;14.63;9.13;;;11.00;79.70;;;;;;4995624;28;20053;-59
2020/12/19 12:18:59;;;;;;;13.90;9.32;;;11.00;80.10;;;;;;4995377;28;20057;-59
2020/12/19 12:21:33;;;;;;;15.95;9.15;;;11.00;79.90;;;;;;4995561;28;20038;-59
2020/12/19 12:23:58;;;;;;;14.23;8.60;;;10.90;80.30;;;;;;5013355;28;20069;-60
2020/12/19 12:26:44;;;;;;;15.10;8.90;;;11.00;80.20;;;;;;5000060;28;20042;-59
2020/12/19 12:29:11;;;;;;;11.90;7.93;;;11.00;80.30;;;;;;5006288;28;20037;-59
2020/12/19 12:31:37;;;;;;;14.32;9.18;;;11.00;80.50;;;;;;5014268;28;20100;-59
2020/12/19 12:34:03;;;;;;;14.80;8.90;;;11.00;80.80;;;;;;5014553;28;20045;-59
2020/12/19 12:36:30;;;;;;;12.48;8.77;;;11.00;80.50;;;;;;5014580;28;20048;-59
2020/12/19 12:38:57;;;;;;;13.38;9.05;;;11.00;80.10;;;;;;5014363;28;20045;-59
2020/12/19 12:41:23;;;;;;;15.48;9.07;;;11.00;80.40;;;;;;5014648;28;20048;-59
2020/12/19 12:43:49;;;;;;;14.57;8.57;;;11.00;80.50;;;;;;5014465;28;20506;-59
2020/12/19 12:46:17;;;;;;;13.88;8.77;;;11.00;80.60;;;;;;5014296;28;20124;-59
2020/12/19 12:49:03;;;;;;;15.63;9.00;;;10.90;81.10;;;;;;5013363;28;20049;-59
2020/12/19 12:51:29;;;;;;;14.30;9.90;;;10.90;80.90;;;;;;5014016;28;20050;-59
2020/12/19 12:54:14;;;;;;;14.55;8.80;;;10.90;81.10;;;;;;5013242;28;20153;-59
2020/12/19 12:57:00;;;;;;;12.50;9.25;;;10.80;81.30;;;;;;4999912;28;20056;-59
2020/12/19 12:59:45;;;;;;;13.60;9.57;;;10.80;81.40;;;;;;5013265;28;20054;-60